METAR AND TAF INFORMATION
METAR FOR LPMA
ADDS - METARS form results

(2222 UTC 28 January 2023)
Data provider http://aviationweather.gov/metar/data/
 
METAR text: LPMA 282200Z 01016KT 9999 BKN015 14/09 Q1023
Conditions at: LPMA (FUNCHAL/MADEIRA , PT) observed 2200 UTC 28 January 2023
Temperature: 14.0°C (57°F)
Dewpoint: 9.0°C (48°F) [RH = 72%]
Pressure (altimeter): 30.21 inches Hg (1023.0 mb)
Winds: from the N (10 degrees) at 18 MPH (16 knots; 8.2 m/s)
Visibility: 6 or more miles (10+ km)
Ceiling: 1500 feet AGL
Clouds: broken clouds at 1500 feet AGL
Weather: no significant weather observed at this time

METAR text: LPMA 282130Z 02012KT 340V070 9999 -DZ BKN015 14/10 Q1023
Conditions at: LPMA (FUNCHAL/MADEIRA , PT) observed 2130 UTC 28 January 2023
Temperature: 14.0°C (57°F)
Dewpoint: 10.0°C (50°F) [RH = 77%]
Pressure (altimeter): 30.21 inches Hg (1023.0 mb)
Winds: from the NNE (20 degrees) at 14 MPH (12 knots; 6.2 m/s)
Visibility: 6 or more miles (10+ km)
Ceiling: 1500 feet AGL
Clouds: broken clouds at 1500 feet AGL
Weather: -DZ  (light drizzle)

Forecast for: LPMA (FUNCHAL/MADEIRA , PT)
Text: TAF LPMA 281700Z 2818/2918 02012KT 9999 SCT015
Forecast period: 1800 UTC 28 January 2023 to 1800 UTC 29 January 2023
Forecast type: FROM: standard forecast or significant change
Winds: from the NNE (20 degrees) at 14 MPH (12 knots; 6.2 m/s)
Visibility: 6 or more miles (10+ km)
Ceiling: at least 12,000 feet AGL
Clouds: scattered clouds at 1500 feet AGL
Weather: no significant weather forecast for this period
Text: TEMPO 2818/2918 8000 SHRA BKN013
Forecast period: 1800 UTC 28 January 2023 to 1800 UTC 29 January 2023
Forecast type: TEMPORARY: The following changes expected for less than half the time period
Visibility: 5 miles (8 km)
Ceiling: 1300 feet AGL
Clouds: broken clouds at 1300 feet AGL
Weather: SHRA  (rain showers)
Text: TEMPO 2818/2903 02017G27KT
Forecast period: 1800 UTC 28 January 2023 to 0300 UTC 29 January 2023
Forecast type: TEMPORARY: The following changes expected for less than half the time period
Winds: from the NNE (20 degrees) at 20 MPH (17 knots; 8.7 m/s)
gusting to 31 MPH (27 knots; 13.9 m/s)
Visibility: missing
Ceiling: unknown
Clouds: missing
Weather: no significant weather forecast for this period

 AIRPORT MAP

 RUNWAY INFORMATION
Runway 05 Runway length 9110 ft Runway width 148 ft
Runway elevation 147 ft Runway displaced threshold 480 ft Runway heading 45
Runway 23 Runway length 9110 ft Runway width 148 ft
Runway elevation 192 ft Runway displaced threshold 490 ft Runway heading 225

 AIRPORT FREQUENCIES
Type APP Name APP Frequency 119.2 MHZ
Type TWR Name TWR Frequency 118.35 MHZ

 AIRPORT NEAR NAVIGATION AIDS
Type VOR-DME Name Madeira Frequency 112200 KHZ
Type NDB Name Madeira Frequency 318 KHZ